createdAt,value
2022-09-21T00:00:26.754Z,9.92
2022-09-21T00:01:30.921Z,9.92
2022-09-21T00:02:33.209Z,9.92
2022-09-21T00:03:36.544Z,9.92
2022-09-21T00:04:38.657Z,9.92
2022-09-21T00:05:40.791Z,9.91
2022-09-21T00:06:46.130Z,9.91
2022-09-21T00:07:48.312Z,9.92
2022-09-21T00:08:51.288Z,9.92
2022-09-21T00:09:53.410Z,9.91
2022-09-21T00:10:55.687Z,9.92
2022-09-21T00:11:58.451Z,9.91
2022-09-21T00:13:03.037Z,9.92
2022-09-21T00:14:12.606Z,9.91
2022-09-21T00:15:18.028Z,9.91
2022-09-21T00:16:20.744Z,9.92
2022-09-21T00:17:22.932Z,9.91
2022-09-21T00:18:25.807Z,9.91
2022-09-21T00:19:27.937Z,9.91
2022-09-21T00:20:30.287Z,9.91
2022-09-21T00:21:33.195Z,9.91
2022-09-21T00:22:36.093Z,9.91
2022-09-21T00:23:39.068Z,9.92
2022-09-21T00:24:41.247Z,9.91
2022-09-21T00:25:43.396Z,9.90
2022-09-21T00:26:45.519Z,9.91
2022-09-21T00:27:53.402Z,9.91
2022-09-21T00:28:58.046Z,9.90
2022-09-21T00:30:02.603Z,9.91
2022-09-21T00:31:07.272Z,9.90
2022-09-21T00:32:12.277Z,9.90
2022-09-21T00:33:14.512Z,9.91
2022-09-21T00:34:16.747Z,9.91
2022-09-21T00:35:19.297Z,9.90
2022-09-21T00:36:24.569Z,9.88
2022-09-21T00:37:27.737Z,9.88
2022-09-21T00:38:30.108Z,9.90
2022-09-21T00:39:32.261Z,9.89
2022-09-21T00:40:34.452Z,9.89
2022-09-21T00:41:36.697Z,9.88
2022-09-21T00:42:39.144Z,9.88
2022-09-21T00:43:46.287Z,9.88
2022-09-21T00:44:48.478Z,9.88
2022-09-21T00:45:58.127Z,9.88
2022-09-21T00:47:09.902Z,9.88
2022-09-21T00:48:12.131Z,9.87
2022-09-21T00:49:15.274Z,9.87
2022-09-21T00:50:20.604Z,9.87
2022-09-21T00:51:22.792Z,9.88
2022-09-21T00:52:27.306Z,9.87
2022-09-21T00:53:30.194Z,9.87
2022-09-21T00:54:39.156Z,9.86
2022-09-21T00:55:46.444Z,9.86
2022-09-21T00:56:48.891Z,9.85
2022-09-21T00:57:55.966Z,9.86
2022-09-21T00:58:58.499Z,9.85
2022-09-21T01:00:03.525Z,9.84
2022-09-21T01:01:05.748Z,9.84
2022-09-21T01:02:08.448Z,9.84
2022-09-21T01:03:13.002Z,9.84
2022-09-21T01:04:16.916Z,9.85
2022-09-21T01:05:19.306Z,9.84
2022-09-21T01:06:22.570Z,9.85
2022-09-21T01:07:29.727Z,9.85
2022-09-21T01:08:33.704Z,9.84
2022-09-21T01:09:36.437Z,9.84
2022-09-21T01:10:48.953Z,9.84
2022-09-21T01:12:18.545Z,9.84
2022-09-21T01:13:43.503Z,9.84
2022-09-21T01:15:13.984Z,9.83
2022-09-21T01:16:45.529Z,9.82
2022-09-21T01:18:09.663Z,9.81
2022-09-21T01:19:47.950Z,9.82
2022-09-21T01:20:55.976Z,9.80
2022-09-21T01:22:37.480Z,9.79
2022-09-21T01:24:13.277Z,9.78
2022-09-21T01:25:53.833Z,9.77
2022-09-21T01:27:29.698Z,9.76
2022-09-21T01:28:41.755Z,9.75
2022-09-21T01:29:53.124Z,9.74
2022-09-21T01:30:58.949Z,9.74
2022-09-21T01:32:13.777Z,9.73
2022-09-21T01:33:26.087Z,9.71
2022-09-21T01:34:40.516Z,9.72
2022-09-21T01:35:50.509Z,9.70
2022-09-21T01:36:57.324Z,9.70
2022-09-21T01:38:04.256Z,9.69
2022-09-21T01:39:12.403Z,9.69
2022-09-21T01:40:21.972Z,9.69
2022-09-21T01:41:28.221Z,9.68
2022-09-21T01:42:32.940Z,9.67
2022-09-21T01:43:39.441Z,9.67
2022-09-21T01:44:45.053Z,9.67
2022-09-21T01:45:54.585Z,9.67
2022-09-21T01:47:00.410Z,9.65
2022-09-21T01:48:03.451Z,9.65
2022-09-21T01:49:12.818Z,9.65
2022-09-21T01:50:17.611Z,9.63
2022-09-21T01:51:22.361Z,9.62
2022-09-21T01:52:39.349Z,9.62
2022-09-21T01:53:46.041Z,9.60
2022-09-21T01:54:54.951Z,9.59
2022-09-21T01:56:02.493Z,9.59
2022-09-21T01:57:12.525Z,9.58
2022-09-21T01:58:42.555Z,9.57
2022-09-21T01:59:54.498Z,9.57
2022-09-21T02:00:57.474Z,9.55
2022-09-21T02:02:19.677Z,9.54
2022-09-21T02:03:42.455Z,9.53
2022-09-21T02:04:44.676Z,9.52
2022-09-21T02:05:47.361Z,9.51
2022-09-21T02:06:51.043Z,9.50
2022-09-21T02:07:53.926Z,9.50
2022-09-21T02:08:56.612Z,9.48
2022-09-21T02:10:00.448Z,9.47
2022-09-21T02:11:04.631Z,9.47
2022-09-21T02:12:06.821Z,9.46
2022-09-21T02:13:10.187Z,9.45
2022-09-21T02:14:16.936Z,9.44
2022-09-21T02:15:24.860Z,9.45
2022-09-21T02:16:41.031Z,9.43
2022-09-21T02:18:14.281Z,9.42
2022-09-21T02:19:27.202Z,9.42
2022-09-21T02:20:36.649Z,9.40
2022-09-21T02:21:50.703Z,9.41
2022-09-21T02:23:26.605Z,9.40
2022-09-21T02:24:48.120Z,9.39
2022-09-21T02:25:59.656Z,9.38
2022-09-21T02:27:04.406Z,9.38
2022-09-21T02:28:28.332Z,9.34
2022-09-21T02:29:38.282Z,9.34
2022-09-21T02:30:45.011Z,9.34
2022-09-21T02:32:17.136Z,9.32
2022-09-21T02:33:32.451Z,9.33
2022-09-21T02:34:46.271Z,9.30
2022-09-21T02:36:02.313Z,9.29
2022-09-21T02:37:17.108Z,9.28
2022-09-21T02:38:47.299Z,9.28
2022-09-21T02:40:02.274Z,9.26
2022-09-21T02:41:10.072Z,9.25
2022-09-21T02:42:35.407Z,9.26
2022-09-21T02:43:43.889Z,9.25
2022-09-21T02:45:03.068Z,9.24
2022-09-21T02:46:12.932Z,9.24
2022-09-21T02:47:56.746Z,9.23
2022-09-21T02:49:04.437Z,9.23
2022-09-21T02:50:13.363Z,9.23
2022-09-21T02:51:27.967Z,9.22
2022-09-21T02:52:35.754Z,9.21
2022-09-21T02:53:40.919Z,9.20
2022-09-21T02:54:47.305Z,9.20
2022-09-21T02:55:56.177Z,9.20
2022-09-21T02:57:00.708Z,9.18
2022-09-21T02:58:07.001Z,9.19
2022-09-21T02:59:10.529Z,9.18
2022-09-21T03:00:13.144Z,9.18
2022-09-21T03:01:19.676Z,9.18
2022-09-21T03:02:21.851Z,9.19
2022-09-21T03:03:24.933Z,9.19
2022-09-21T03:04:28.067Z,9.18
2022-09-21T03:05:30.319Z,9.17
2022-09-21T03:06:33.640Z,9.18
2022-09-21T03:07:38.278Z,9.19
2022-09-21T03:08:41.041Z,9.18
2022-09-21T03:09:49.140Z,9.18
2022-09-21T03:10:51.516Z,9.18
2022-09-21T03:11:54.094Z,9.19
2022-09-21T03:12:59.467Z,9.19
2022-09-21T03:14:05.618Z,9.20
2022-09-21T03:15:08.171Z,9.19
2022-09-21T03:16:11.294Z,9.19
2022-09-21T03:17:13.441Z,9.20
2022-09-21T03:18:15.625Z,9.19
2022-09-21T03:19:17.841Z,9.20
2022-09-21T03:20:20.551Z,9.21
2022-09-21T03:21:22.744Z,9.21
2022-09-21T03:22:25.028Z,9.22
2022-09-21T03:23:29.416Z,9.22
2022-09-21T03:24:46.869Z,9.23
2022-09-21T03:25:51.897Z,9.23
2022-09-21T03:26:54.063Z,9.23
2022-09-21T03:27:59.301Z,9.23
2022-09-21T03:29:01.451Z,9.23
2022-09-21T03:30:03.895Z,9.23
2022-09-21T03:31:06.807Z,9.23
2022-09-21T03:32:09.796Z,9.24
2022-09-21T03:33:13.190Z,9.23
2022-09-21T03:34:15.399Z,9.25
2022-09-21T03:35:18.384Z,9.25
2022-09-21T03:36:21.086Z,9.24
2022-09-21T03:37:25.481Z,9.25
2022-09-21T03:38:27.630Z,9.24
2022-09-21T03:39:30.147Z,9.25
2022-09-21T03:40:33.140Z,9.24
2022-09-21T03:41:35.270Z,9.25
2022-09-21T03:42:41.096Z,9.24
2022-09-21T03:43:43.203Z,9.24
2022-09-21T03:44:45.352Z,9.23
2022-09-21T03:45:48.379Z,9.24
2022-09-21T03:46:53.972Z,9.25
2022-09-21T03:48:00.510Z,9.25
2022-09-21T03:49:05.293Z,9.24
2022-09-21T03:50:10.147Z,9.24
2022-09-21T03:51:12.566Z,9.23
2022-09-21T03:52:14.691Z,9.25
2022-09-21T03:53:19.465Z,9.25
2022-09-21T03:54:21.610Z,9.25
2022-09-21T03:55:24.377Z,9.25
2022-09-21T03:56:26.904Z,9.24
2022-09-21T03:57:29.053Z,9.24
2022-09-21T03:58:31.193Z,9.24
2022-09-21T03:59:33.354Z,9.23
2022-09-21T04:00:36.168Z,9.24
2022-09-21T04:01:38.686Z,9.24
2022-09-21T04:02:41.365Z,9.24
2022-09-21T04:03:43.537Z,9.23
2022-09-21T04:04:48.918Z,9.24
2022-09-21T04:05:51.128Z,9.23
2022-09-21T04:06:53.265Z,9.22
2022-09-21T04:07:56.892Z,9.23
2022-09-21T04:09:00.376Z,9.23
2022-09-21T04:10:04.714Z,9.23
2022-09-21T04:11:20.271Z,9.23
2022-09-21T04:12:25.477Z,9.23
2022-09-21T04:13:27.623Z,9.22
2022-09-21T04:14:29.901Z,9.22
2022-09-21T04:15:32.895Z,9.20
2022-09-21T04:16:38.558Z,9.20
2022-09-21T04:17:41.554Z,9.22
2022-09-21T04:18:43.752Z,9.19
2022-09-21T04:19:45.879Z,9.20
2022-09-21T04:20:48.013Z,9.20
2022-09-21T04:21:51.571Z,9.19
2022-09-21T04:22:53.831Z,9.19
2022-09-21T04:23:56.347Z,9.17
2022-09-21T04:24:58.633Z,9.17
2022-09-21T04:26:02.344Z,9.16
2022-09-21T04:27:04.488Z,9.15
2022-09-21T04:28:06.608Z,9.14
2022-09-21T04:29:11.120Z,9.15
2022-09-21T04:30:15.202Z,9.12
2022-09-21T04:31:17.473Z,9.13
2022-09-21T04:32:19.625Z,9.10
2022-09-21T04:33:24.033Z,9.09
2022-09-21T04:34:26.656Z,9.09
2022-09-21T04:35:28.818Z,9.08
2022-09-21T04:36:36.757Z,9.06
2022-09-21T04:37:42.139Z,9.07
2022-09-21T04:38:44.871Z,9.03
2022-09-21T04:39:47.114Z,9.03
2022-09-21T04:40:59.072Z,9.02
2022-09-21T04:42:01.769Z,9.02
2022-09-21T04:43:03.906Z,9.00
2022-09-21T04:44:06.189Z,8.99
2022-09-21T04:45:11.187Z,8.97
2022-09-21T04:46:16.122Z,8.96
2022-09-21T04:47:19.479Z,8.95
2022-09-21T04:48:21.600Z,8.94
2022-09-21T04:49:23.928Z,8.93
2022-09-21T04:50:26.072Z,8.92
2022-09-21T04:51:39.135Z,8.91
2022-09-21T04:52:41.278Z,8.88
2022-09-21T04:53:44.859Z,8.88
2022-09-21T04:54:47.591Z,8.88
2022-09-21T04:55:49.826Z,8.88
2022-09-21T04:56:54.831Z,8.87
2022-09-21T04:58:04.272Z,8.86
2022-09-21T04:59:06.585Z,8.85
2022-09-21T05:00:09.701Z,8.85
2022-09-21T05:01:12.079Z,8.86
2022-09-21T05:02:14.447Z,8.85
2022-09-21T05:03:17.381Z,8.84
2022-09-21T05:04:19.570Z,8.84
2022-09-21T05:05:21.706Z,8.83
2022-09-21T05:06:23.971Z,8.82
2022-09-21T05:07:26.080Z,8.82
2022-09-21T05:08:47.587Z,8.82
2022-09-21T05:10:04.854Z,8.82
2022-09-21T05:11:08.185Z,8.82
2022-09-21T05:12:10.327Z,8.80
2022-09-21T05:13:15.601Z,8.82
2022-09-21T05:14:20.053Z,8.82
2022-09-21T05:15:22.415Z,8.82
2022-09-21T05:16:24.550Z,8.81
2022-09-21T05:17:26.891Z,8.81
2022-09-21T05:18:29.602Z,8.80
2022-09-21T05:19:31.815Z,8.81
2022-09-21T05:20:34.023Z,8.80
2022-09-21T05:21:39.347Z,8.81
2022-09-21T05:22:41.620Z,8.81
2022-09-21T05:23:43.768Z,8.81
2022-09-21T05:24:49.176Z,8.81
2022-09-21T05:25:51.645Z,8.82
2022-09-21T05:26:53.764Z,8.82
2022-09-21T05:27:55.932Z,8.83
2022-09-21T05:29:01.092Z,8.82
2022-09-21T05:30:04.630Z,8.83
2022-09-21T05:31:20.911Z,8.84
2022-09-21T05:32:54.662Z,8.84
2022-09-21T05:34:12.344Z,8.85
2022-09-21T05:35:35.481Z,8.85
2022-09-21T05:37:24.908Z,8.85
2022-09-21T05:38:27.305Z,8.85
2022-09-21T05:39:29.674Z,8.85
2022-09-21T05:40:37.602Z,8.86
2022-09-21T05:41:43.245Z,8.87
2022-09-21T05:42:45.679Z,8.88
2022-09-21T05:43:48.078Z,8.87
2022-09-21T05:44:50.770Z,8.89
2022-09-21T05:46:13.418Z,8.90
2022-09-21T05:47:38.677Z,8.90
2022-09-21T05:48:53.344Z,8.91
2022-09-21T05:50:17.956Z,8.92
2022-09-21T05:51:47.827Z,8.93
2022-09-21T05:53:22.424Z,8.92
2022-09-21T05:54:31.269Z,8.94
2022-09-21T05:56:05.479Z,8.95
2022-09-21T05:57:38.284Z,8.97
2022-09-21T05:59:06.673Z,8.97
2022-09-21T06:00:20.393Z,8.98
2022-09-21T06:01:56.216Z,8.99
2022-09-21T06:03:22.462Z,9.00
2022-09-21T06:04:24.905Z,9.01
2022-09-21T06:05:27.208Z,9.02
2022-09-21T06:06:29.363Z,9.03
2022-09-21T06:07:31.515Z,9.03
2022-09-21T06:08:36.700Z,9.06
2022-09-21T06:09:42.942Z,9.07
2022-09-21T06:10:45.851Z,9.08
2022-09-21T06:11:48.411Z,9.09
2022-09-21T06:12:50.748Z,9.11
2022-09-21T06:14:01.270Z,9.11
2022-09-21T06:15:04.812Z,9.12
2022-09-21T06:16:07.708Z,9.15
2022-09-21T06:17:13.091Z,9.16
2022-09-21T06:18:17.954Z,9.18
2022-09-21T06:19:20.866Z,9.20
2022-09-21T06:20:25.187Z,9.21
2022-09-21T06:21:27.461Z,9.24
2022-09-21T06:22:29.897Z,9.25
2022-09-21T06:23:32.126Z,9.26
2022-09-21T06:24:40.449Z,9.29
2022-09-21T06:25:42.816Z,9.31
2022-09-21T06:26:47.796Z,9.33
2022-09-21T06:27:49.957Z,9.35
2022-09-21T06:28:52.208Z,9.36
2022-09-21T06:29:54.355Z,9.37
2022-09-21T06:30:58.320Z,9.40
2022-09-21T06:32:02.670Z,9.42
2022-09-21T06:33:06.550Z,9.44
2022-09-21T06:34:08.814Z,9.46
2022-09-21T06:35:11.911Z,9.47
2022-09-21T06:36:14.803Z,9.49
2022-09-21T06:37:17.062Z,9.51
2022-09-21T06:38:19.225Z,9.52
2022-09-21T06:39:21.384Z,9.54
2022-09-21T06:40:23.578Z,9.57
2022-09-21T06:41:25.775Z,9.59
2022-09-21T06:42:31.025Z,9.60
2022-09-21T06:43:33.341Z,9.62
2022-09-21T06:44:35.523Z,9.65
2022-09-21T06:45:37.733Z,9.67
2022-09-21T06:46:39.979Z,9.68
2022-09-21T06:47:48.217Z,9.70
2022-09-21T06:48:50.644Z,9.71
2022-09-21T06:49:54.351Z,9.75
2022-09-21T06:50:58.546Z,9.76
2022-09-21T06:52:01.220Z,9.78
2022-09-21T06:53:04.272Z,9.80
2022-09-21T06:54:06.471Z,9.82
2022-09-21T06:55:10.138Z,9.84
2022-09-21T06:56:15.859Z,9.88
2022-09-21T06:57:18.002Z,9.89
2022-09-21T06:58:20.322Z,9.91
2022-09-21T06:59:22.452Z,9.93
2022-09-21T07:00:24.593Z,9.96
2022-09-21T07:01:26.951Z,9.97
2022-09-21T07:02:32.112Z,10.00
2022-09-21T07:03:34.736Z,10.04
2022-09-21T07:04:37.314Z,10.06
2022-09-21T07:05:40.222Z,10.10
2022-09-21T07:06:42.525Z,10.12
2022-09-21T07:07:44.675Z,10.16
2022-09-21T07:10:15.881Z,10.24
2022-09-21T07:11:22.086Z,10.29
2022-09-21T07:12:25.431Z,10.33
2022-09-21T07:13:30.762Z,10.38
2022-09-21T07:14:34.236Z,10.41
2022-09-21T07:15:36.897Z,10.46
2022-09-21T07:16:40.122Z,10.49
2022-09-21T07:17:50.306Z,10.55
2022-09-21T07:18:54.756Z,10.58
2022-09-21T07:19:56.887Z,10.64
2022-09-21T07:21:11.801Z,10.69
2022-09-21T07:22:14.027Z,10.73
2022-09-21T07:23:20.492Z,10.78
2022-09-21T07:24:22.749Z,10.82
2022-09-21T07:25:24.871Z,10.86
2022-09-21T07:26:27.027Z,10.90
2022-09-21T07:27:30.984Z,10.94
2022-09-21T07:28:33.336Z,10.98
2022-09-21T07:29:35.521Z,11.02
2022-09-21T07:30:39.176Z,11.07
2022-09-21T07:31:45.098Z,11.12
2022-09-21T07:32:47.624Z,11.15
2022-09-21T07:33:49.931Z,11.19
2022-09-21T07:34:56.554Z,11.25
2022-09-21T07:35:58.947Z,11.30
2022-09-21T07:37:01.907Z,11.35
2022-09-21T07:38:06.743Z,11.41
2022-09-21T07:39:09.878Z,11.46
2022-09-21T07:40:12.231Z,11.51
2022-09-21T07:41:14.756Z,11.57
2022-09-21T07:42:18.798Z,11.63
2022-09-21T07:43:21.083Z,11.68
2022-09-21T07:44:23.195Z,11.74
2022-09-21T07:45:26.776Z,11.79
2022-09-21T07:46:29.338Z,11.85
2022-09-21T07:47:31.711Z,11.90
2022-09-21T07:48:33.906Z,11.96
2022-09-21T07:49:43.884Z,12.01
2022-09-21T07:50:46.027Z,12.07
2022-09-21T07:51:48.361Z,12.12
2022-09-21T07:52:50.563Z,12.17
2022-09-21T07:53:59.513Z,12.24
2022-09-21T07:55:01.757Z,12.29
2022-09-21T07:56:06.072Z,12.34
2022-09-21T07:57:26.786Z,12.42
2022-09-21T07:58:47.877Z,12.50
2022-09-21T07:59:50.311Z,12.62
2022-09-21T08:00:52.577Z,12.70
2022-09-21T08:01:54.833Z,12.78
2022-09-21T08:02:57.674Z,12.88
2022-09-21T08:04:00.941Z,12.99
2022-09-21T08:05:03.425Z,13.09
2022-09-21T08:06:06.011Z,13.22
2022-09-21T08:07:08.402Z,13.32
2022-09-21T08:08:10.564Z,13.44
2022-09-21T08:09:12.734Z,13.55
2022-09-21T08:10:14.953Z,13.67
2022-09-21T08:11:22.155Z,13.77
2022-09-21T08:12:24.370Z,13.89
2022-09-21T08:13:26.544Z,14.00
2022-09-21T08:14:29.403Z,14.12
2022-09-21T08:15:48.741Z,14.23
2022-09-21T08:16:51.805Z,14.39
2022-09-21T08:17:54.513Z,14.51
2022-09-21T08:18:57.171Z,14.66
2022-09-21T08:19:59.352Z,14.78
2022-09-21T08:21:04.853Z,14.93
2022-09-21T08:22:07.095Z,15.06
2022-09-21T08:23:09.973Z,15.20
2022-09-21T08:24:12.167Z,15.32
2022-09-21T08:25:14.486Z,15.45
2022-09-21T08:26:19.561Z,15.60
2022-09-21T08:27:25.135Z,15.72
2022-09-21T08:28:28.825Z,15.86
2022-09-21T08:29:31.005Z,16.00
2022-09-21T08:30:34.214Z,16.13
2022-09-21T08:31:36.371Z,16.26
2022-09-21T08:32:50.562Z,16.40
2022-09-21T08:33:55.279Z,16.54
2022-09-21T08:34:57.470Z,16.68
2022-09-21T08:36:01.181Z,16.81
2022-09-21T08:37:03.419Z,16.94
2022-09-21T08:38:05.541Z,17.06
2022-09-21T08:39:09.152Z,17.18
2022-09-21T08:40:12.512Z,17.32
2022-09-21T08:41:36.077Z,17.41
2022-09-21T08:42:53.168Z,17.59
2022-09-21T08:44:11.190Z,17.71
2022-09-21T08:45:19.718Z,17.83
2022-09-21T08:46:24.564Z,17.93
2022-09-21T08:47:44.979Z,18.04
2022-09-21T08:48:54.452Z,18.13
2022-09-21T08:50:02.391Z,18.23
2022-09-21T08:51:08.842Z,18.30
2022-09-21T08:52:17.128Z,18.37
2022-09-21T08:53:26.965Z,18.43
2022-09-21T08:54:58.544Z,18.51
2022-09-21T08:56:01.868Z,18.58
2022-09-21T08:57:05.651Z,18.61
2022-09-21T08:58:23.601Z,18.65
2022-09-21T08:59:25.980Z,18.67
2022-09-21T09:00:32.280Z,18.70
2022-09-21T09:02:28.267Z,18.73
2022-09-21T09:03:52.132Z,18.78
2022-09-21T09:05:20.464Z,18.86
2022-09-21T09:06:41.257Z,18.90
2022-09-21T09:08:04.741Z,18.94
2022-09-21T09:09:15.738Z,18.95
2022-09-21T09:10:38.514Z,18.98
2022-09-21T09:11:46.820Z,19.00
2022-09-21T09:13:07.412Z,19.04
2022-09-21T09:14:21.503Z,19.07
2022-09-21T09:15:45.109Z,19.11
2022-09-21T09:16:56.451Z,19.16
2022-09-21T09:18:16.860Z,19.20
2022-09-21T09:19:50.565Z,19.25
2022-09-21T09:21:13.189Z,19.32
2022-09-21T09:22:25.670Z,19.37
2022-09-21T09:23:32.739Z,19.44
2022-09-21T09:24:51.403Z,19.51
2022-09-21T09:26:00.213Z,19.55
2022-09-21T09:27:20.648Z,19.60
2022-09-21T09:28:38.584Z,19.68
2022-09-21T09:30:03.946Z,19.75
2022-09-21T09:31:24.845Z,19.83
2022-09-21T09:32:33.989Z,19.89
2022-09-21T09:33:49.743Z,19.98
2022-09-21T09:35:13.729Z,20.04
2022-09-21T09:36:16.908Z,20.09
2022-09-21T09:37:23.576Z,20.16
2022-09-21T09:38:33.025Z,20.22
2022-09-21T09:39:35.397Z,20.26
2022-09-21T09:40:56.638Z,20.31
2022-09-21T09:42:35.496Z,20.33
2022-09-21T09:43:46.642Z,20.34
2022-09-21T09:45:15.612Z,20.36
2022-09-21T09:46:32.796Z,20.35
2022-09-21T09:47:59.131Z,20.35
2022-09-21T09:49:12.315Z,20.33
2022-09-21T09:50:25.521Z,20.30
2022-09-21T09:51:27.760Z,20.24
2022-09-21T09:52:31.053Z,20.21
2022-09-21T09:53:34.045Z,20.19
2022-09-21T09:54:37.043Z,20.18
2022-09-21T09:55:43.811Z,20.16
2022-09-21T09:56:46.073Z,20.17
2022-09-21T09:57:49.675Z,20.16
2022-09-21T09:59:03.719Z,20.17
2022-09-21T10:00:12.579Z,20.16
2022-09-21T10:01:42.725Z,20.19
2022-09-21T10:02:50.817Z,20.21
2022-09-21T10:04:09.816Z,20.22
2022-09-21T10:05:24.058Z,20.19
2022-09-21T10:06:36.454Z,20.19
2022-09-21T10:07:40.808Z,20.18
2022-09-21T10:08:53.286Z,20.17
2022-09-21T10:09:55.546Z,20.15
2022-09-21T10:10:58.399Z,20.12
2022-09-21T10:12:27.622Z,20.07
2022-09-21T10:13:33.150Z,20.04
2022-09-21T10:14:36.302Z,20.02
2022-09-21T10:15:54.470Z,20.02
2022-09-21T10:17:03.929Z,19.99
2022-09-21T10:18:37.147Z,19.97
2022-09-21T10:19:39.507Z,19.96
2022-09-21T10:21:07.627Z,19.93
2022-09-21T10:22:18.228Z,19.89
2022-09-21T10:23:20.636Z,19.85
2022-09-21T10:24:46.585Z,19.80
2022-09-21T10:25:58.253Z,19.77
2022-09-21T10:27:06.415Z,19.70
2022-09-21T10:28:13.608Z,19.65
2022-09-21T10:29:22.028Z,19.60
2022-09-21T10:30:30.057Z,19.51
2022-09-21T10:31:34.511Z,19.46
2022-09-21T10:32:56.872Z,19.39
2022-09-21T10:34:02.024Z,19.31
2022-09-21T10:35:10.594Z,19.26
2022-09-21T10:36:35.783Z,19.16
2022-09-21T10:37:54.601Z,19.07
2022-09-21T10:38:57.288Z,18.99
2022-09-21T10:40:00.020Z,18.92
2022-09-21T10:41:03.033Z,18.84
2022-09-21T10:42:14.548Z,18.77
2022-09-21T10:43:37.629Z,18.69
2022-09-21T10:44:43.391Z,18.59
2022-09-21T10:45:54.203Z,18.54
2022-09-21T10:46:58.146Z,18.46
2022-09-21T10:48:06.024Z,18.43
2022-09-21T10:49:17.318Z,18.39
2022-09-21T10:50:35.119Z,18.35
2022-09-21T10:51:37.363Z,18.33
2022-09-21T10:52:45.978Z,18.31
2022-09-21T10:53:53.792Z,18.30
2022-09-21T10:55:00.138Z,18.28
2022-09-21T10:56:22.368Z,18.27
2022-09-21T10:57:26.769Z,18.26
2022-09-21T10:58:29.515Z,18.25
2022-09-21T10:59:33.790Z,18.25
2022-09-21T11:00:43.804Z,18.26
2022-09-21T11:01:48.682Z,18.26
2022-09-21T11:02:51.396Z,18.28
2022-09-21T11:04:10.178Z,18.30
2022-09-21T11:05:26.762Z,18.32
2022-09-21T11:06:46.681Z,18.35
2022-09-21T11:08:05.460Z,18.37
2022-09-21T11:09:13.970Z,18.38
2022-09-21T11:10:43.879Z,18.40
2022-09-21T11:11:45.930Z,18.40
2022-09-21T11:13:30.846Z,18.42
2022-09-21T11:14:52.369Z,18.42
2022-09-21T11:16:13.204Z,18.40
2022-09-21T11:17:44.075Z,18.38
2022-09-21T11:19:18.560Z,18.35
2022-09-21T11:20:41.590Z,18.32
2022-09-21T11:22:05.929Z,18.30
2022-09-21T11:23:33.765Z,18.27
2022-09-21T11:25:07.420Z,18.25
2022-09-21T11:26:26.435Z,18.24
2022-09-21T11:27:43.082Z,18.23
2022-09-21T11:28:57.978Z,18.22
2022-09-21T11:30:10.432Z,18.21
2022-09-21T11:31:46.361Z,18.22
2022-09-21T11:33:10.778Z,18.23
2022-09-21T11:34:31.132Z,18.24
2022-09-21T11:36:12.064Z,18.25
2022-09-21T11:37:39.461Z,18.27
2022-09-21T11:39:00.321Z,18.26
2022-09-21T11:40:19.990Z,18.23
2022-09-21T11:41:22.307Z,18.23
2022-09-21T11:42:55.698Z,18.22
2022-09-21T11:44:20.058Z,18.22
2022-09-21T11:45:50.506Z,18.21
2022-09-21T11:47:37.277Z,18.19
2022-09-21T11:49:06.604Z,18.19
2022-09-21T11:50:31.625Z,18.17
2022-09-21T11:51:45.706Z,18.14
2022-09-21T11:53:09.363Z,18.13
2022-09-21T11:54:17.510Z,18.10
2022-09-21T11:55:38.511Z,18.07
2022-09-21T11:57:02.584Z,18.05
2022-09-21T11:58:18.736Z,18.03
2022-09-21T12:00:00.659Z,18.01
2022-09-21T12:01:19.192Z,18.00
2022-09-21T12:02:28.257Z,17.98
2022-09-21T12:03:47.676Z,17.95
2022-09-21T12:05:00.505Z,17.94
2022-09-21T12:06:52.988Z,17.91
2022-09-21T12:08:34.707Z,17.90
2022-09-21T12:09:56.873Z,17.90
2022-09-21T12:11:29.342Z,17.88
2022-09-21T12:12:57.690Z,17.88
2022-09-21T12:14:15.350Z,17.85
2022-09-21T12:15:26.619Z,17.85
2022-09-21T12:16:43.683Z,17.84
2022-09-21T12:17:53.180Z,17.82
2022-09-21T12:19:03.961Z,17.81
2022-09-21T12:20:20.842Z,17.81
2022-09-21T12:21:34.568Z,17.79
2022-09-21T12:22:42.500Z,17.79
2022-09-21T12:24:04.489Z,17.76
2022-09-21T12:25:20.195Z,17.75
2022-09-21T12:26:31.988Z,17.73
2022-09-21T12:27:57.085Z,17.71
2022-09-21T12:29:28.910Z,17.68
2022-09-21T12:30:36.627Z,17.67
2022-09-21T12:31:56.284Z,17.65
2022-09-21T12:33:00.405Z,17.61
2022-09-21T12:34:22.784Z,17.60
2022-09-21T12:35:37.172Z,17.55
2022-09-21T12:36:46.327Z,17.52
2022-09-21T12:37:54.939Z,17.49
2022-09-21T12:39:18.546Z,17.45
2022-09-21T12:40:38.660Z,17.40
2022-09-21T12:41:53.343Z,17.34
2022-09-21T12:43:03.243Z,17.30
2022-09-21T12:44:24.275Z,17.25
2022-09-21T12:45:37.752Z,17.19
2022-09-21T12:46:58.376Z,17.13
2022-09-21T12:48:40.046Z,17.08
2022-09-21T12:49:48.417Z,17.03
2022-09-21T12:51:07.481Z,16.99
2022-09-21T12:52:22.401Z,16.94
2022-09-21T12:53:27.432Z,16.89
2022-09-21T12:54:39.531Z,16.87
2022-09-21T12:55:54.301Z,16.83
2022-09-21T12:58:13.935Z,16.77
2022-09-21T12:59:41.730Z,16.69
2022-09-21T13:01:06.642Z,16.63
2022-09-21T13:02:26.541Z,16.57
2022-09-21T13:03:37.739Z,16.50
2022-09-21T13:04:58.001Z,16.46
2022-09-21T13:06:44.247Z,16.39
2022-09-21T13:08:16.349Z,16.35
2022-09-21T13:09:20.934Z,16.31
2022-09-21T13:10:31.513Z,16.28
2022-09-21T13:11:35.265Z,16.25
2022-09-21T13:12:44.288Z,16.23
2022-09-21T13:13:59.869Z,16.20
2022-09-21T13:15:14.919Z,16.18
2022-09-21T13:17:58.935Z,16.15
2022-09-21T13:19:04.210Z,16.14
2022-09-21T13:20:19.590Z,16.14
2022-09-21T13:21:30.092Z,16.12
2022-09-21T13:22:34.487Z,16.13
2022-09-21T13:23:42.336Z,16.12
2022-09-21T13:24:47.140Z,16.12
2022-09-21T13:25:59.529Z,16.12
2022-09-21T13:27:05.203Z,16.13
2022-09-21T13:28:13.714Z,16.13
2022-09-21T13:29:45.260Z,16.13
2022-09-21T13:30:50.233Z,16.15
2022-09-21T13:31:59.979Z,16.15
2022-09-21T13:33:05.741Z,16.17
2022-09-21T13:34:29.666Z,16.19
2022-09-21T13:35:52.368Z,16.20
2022-09-21T13:37:19.152Z,16.22
2022-09-21T13:38:41.249Z,16.23
2022-09-21T13:39:45.613Z,16.26
2022-09-21T13:41:02.007Z,16.28
2022-09-21T13:42:29.436Z,16.29
2022-09-21T13:43:59.771Z,16.31
2022-09-21T13:45:19.898Z,16.33
2022-09-21T13:46:37.034Z,16.36
2022-09-21T13:47:45.768Z,16.37
2022-09-21T13:49:02.765Z,16.39
2022-09-21T13:50:24.767Z,16.42
2022-09-21T13:51:26.992Z,16.42
2022-09-21T13:52:39.501Z,16.45
2022-09-21T13:53:42.269Z,16.46
2022-09-21T13:54:44.334Z,16.48
2022-09-21T13:55:56.729Z,16.49
2022-09-21T13:57:17.144Z,16.50
2022-09-21T13:58:25.491Z,16.51
2022-09-21T13:59:28.006Z,16.53
2022-09-21T14:00:38.530Z,16.56
2022-09-21T14:01:48.415Z,16.58
2022-09-21T14:02:50.924Z,16.59
2022-09-21T14:03:58.335Z,16.61
2022-09-21T14:05:35.872Z,16.64
2022-09-21T14:06:44.937Z,16.65
2022-09-21T14:07:48.275Z,16.65
2022-09-21T14:09:00.109Z,16.66
2022-09-21T14:10:07.776Z,16.66
2022-09-21T14:11:33.626Z,16.65
2022-09-21T14:12:45.708Z,16.63
2022-09-21T14:14:17.353Z,16.63
2022-09-21T14:15:22.475Z,16.61
2022-09-21T14:16:36.288Z,16.60
2022-09-21T14:17:40.662Z,16.59
2022-09-21T14:18:45.503Z,16.57
2022-09-21T14:19:53.662Z,16.55
2022-09-21T14:21:19.177Z,16.52
2022-09-21T14:22:26.689Z,16.51
2022-09-21T14:23:29.550Z,16.50
2022-09-21T14:24:43.720Z,16.48
2022-09-21T14:25:51.252Z,16.46
2022-09-21T14:27:15.188Z,16.44
2022-09-21T14:28:19.774Z,16.44
2022-09-21T14:29:53.218Z,16.43
2022-09-21T14:31:02.217Z,16.41
2022-09-21T14:32:14.238Z,16.41
2022-09-21T14:33:42.298Z,16.40
2022-09-21T14:34:51.094Z,16.38
2022-09-21T14:35:57.592Z,16.36
2022-09-21T14:37:04.614Z,16.35
2022-09-21T14:38:27.547Z,16.34
2022-09-21T14:39:33.962Z,16.34
2022-09-21T14:40:39.335Z,16.34
2022-09-21T14:41:46.108Z,16.33
2022-09-21T14:42:49.469Z,16.30
2022-09-21T14:44:04.774Z,16.31
2022-09-21T14:45:18.164Z,16.29
2022-09-21T14:46:45.809Z,16.28
2022-09-21T14:48:03.073Z,16.28
2022-09-21T14:49:12.352Z,16.27
2022-09-21T14:50:32.737Z,16.27
2022-09-21T14:52:04.344Z,16.26
2022-09-21T14:53:35.633Z,16.25
2022-09-21T14:55:17.392Z,16.22
2022-09-21T14:56:51.730Z,16.21
2022-09-21T14:58:03.116Z,16.20
2022-09-21T14:59:33.768Z,16.17
2022-09-21T15:00:39.735Z,16.16
2022-09-21T15:01:58.239Z,16.14
2022-09-21T15:03:25.340Z,16.11
2022-09-21T15:04:45.698Z,16.09
2022-09-21T15:05:55.469Z,16.06
2022-09-21T15:07:54.712Z,16.04
2022-09-21T15:09:44.868Z,16.01
2022-09-21T15:11:06.729Z,15.98
2022-09-21T15:12:18.927Z,15.96
2022-09-21T15:13:49.007Z,15.93
2022-09-21T15:15:11.120Z,15.92
2022-09-21T15:16:22.145Z,15.89
2022-09-21T15:17:30.116Z,15.87
2022-09-21T15:18:36.253Z,15.86
2022-09-21T15:19:38.440Z,15.86
2022-09-21T15:20:40.615Z,15.84
2022-09-21T15:21:44.313Z,15.85
2022-09-21T15:22:46.471Z,15.83
2022-09-21T15:23:54.601Z,15.81